Last 30 Days

Upper Lake

Daily Data | America/Los_Angeles
as of 10/24/20 10:38 PM PDT
Date Daily Max Temp (°F) Time of Max Temp Daily Min Temp (°F) Time of Min Temp Daily Rain (In) Monthly Rain (In) Seasonal Rainfall (In) Wind Spd (mph) Daily Max Wind (mph) Time of Max Wind Max Wind Dir (°) Dew Pt (°F) Max RH (%) Min RH (%) Hrs <= 32F (hrs) Hrs <= 28F (hrs) Chilling <=45F (hrs) Chill Hrs 32-45F (hrs) Utah Chilling (Units) GDDs (DL) GDDs (Mx/Mn) Seas GDDs (DL) Seas GDDs (Smpl) Hrs 70-85F (hrs) Hrs > 95F (hrs) Powdery Mildew Stress (pts) Degree Hrs (hrs) Max Temp2 (°F) Min Temp2 (°F) Bat Volt Min Day (V)
10/23/20 78.3 1506 36.8 0748 0.00 0.00 0.11 2.2 13.2 1859 WNW | 287 36.1 92 17 0.0 0.0 8.0 8.0 3.0 9.5 7.5 3,593 3,616 6.02 0.00 20 65.8 77.7 36.4 12.3
10/22/20 81.1 1646 42.8 0751 0.00 0.00 0.11 1.9 12.0 1330 SE | 146 35.0 100 5 0.0 0.0 3.5 3.5 3.5 10.1 11.9 3,583 3,608 6.68 0.00 0 85.4 80.4 42.6 12.3
10/21/20 89.0 1535 43.0 0650 0.00 0.00 0.11 2.1 14.8 1841 NW | 307 44.8 97 18 0.0 0.0 3.5 3.5 1.0 14.0 16.0 3,573 3,596 3.78 0.00 0 140.8 86.9 42.8 12.3
10/20/20 89.7 1548 42.1 0741 0.00 0.00 0.11 1.8 10.6 1247 SSE | 149 44.0 100 12 0.0 0.0 3.1 3.1 1.0 14.0 15.9 3,559 3,580 2.92 0.00 0 145.5 88.9 41.7 12.3
10/19/20 90.5 1609 43.5 0728 0.00 0.00 0.11 1.6 9.4 1826 WNW | 285 44.0 96 15 0.0 0.0 2.0 2.0 1.0 14.2 17.0 3,545 3,564 2.79 0.00 0 144.9 88.9 43.2 12.3
10/18/20 92.8 1538 43.9 0710 0.00 0.00 0.11 1.6 13.4 1617 NW | 307 41.4 92 11 0.0 0.0 1.5 1.5 1.0 15.2 18.4 3,531 3,547 2.73 0.00 0 163.1 91.2 43.7 12.3
10/17/20 97.7 1550 42.5 0739 0.00 0.00 0.11 2.0 18.1 1754 NW | 310 37.1 92 7 0.0 0.0 2.7 2.7 0.5 17.6 20.1 3,516 3,529 2.11 0.94 0 215.2 94.9 42.0 12.3
10/16/20 93.5 1600 42.9 0722 0.00 0.00 0.11 1.7 8.5 1603 SSE | 166 37.0 93 8 0.0 0.0 2.3 2.3 1.0 15.3 18.2 3,498 3,509 2.23 0.00 10 176.1 91.7 42.5 12.3
10/15/20 94.3 1616 45.7 0714 0.00 0.00 0.11 1.8 10.1 1458 SE | 126 42.1 98 10 0.0 0.0 0.0 0.0 1.0 16.0 20.0 3,483 3,491 2.60 0.00 20 179.3 92.7 45.3 12.3
10/14/20 87.8 1627 46.9 0730 0.00 0.00 0.11 3.6 16.3 1643 NW | 316 46.1 100 13 0.0 0.0 0.0 0.0 0.0 17.0 17.3 3,467 3,471 4.05 0.00 30 166.3 88.0 46.5 12.3
10/13/20 87.9 1525 45.0 0711 0.00 0.00 0.11 4.9 22.1 1516 W | 277 48.1 100 20 0.0 0.0 0.0 0.0 -0.5 16.8 16.5 3,450 3,453 4.36 0.00 40 169.7 88.1 44.9 12.3
10/12/20 84.9 1558 42.9 0737 0.00 0.00 0.11 3.4 18.3 1758 NW | 316 46.5 100 20 0.0 0.0 1.8 1.8 0.5 13.8 13.9 3,433 3,437 9.30 0.00 20 128.7 85.0 42.6 12.4
10/11/20 77.2 1635 43.9 0735 0.00 0.00 0.11 4.6 18.0 1629 NW | 317 46.3 100 22 0.0 0.0 0.8 0.8 1.0 11.2 10.5 3,420 3,423 6.24 0.00 0 65.5 77.4 43.7 12.4
10/10/20 68.7 1525 51.1 0414 0.00 0.00 0.11 3.4 18.1 1637 NW | 325 55.1 100 67 0.0 0.0 0.0 0.0 0.0 9.0 9.9 3,408 3,412 0.00 0.00 10 9.8 69.1 51.0 12.3
10/9/20 78.4 1529 41.0 0714 0.00 0.00 0.11 3.4 21.8 2024 WNW | 294 46.7 100 23 0.0 0.0 6.4 6.4 0.5 10.9 9.7 3,399 3,402 5.55 0.00 20 64.3 77.4 40.7 12.3
10/8/20 80.6 1404 46.1 0152 0.00 0.00 0.11 2.5 13.7 1722 WNW | 301 44.1 95 17 0.0 0.0 0.0 0.0 2.0 10.8 13.3 3,388 3,393 7.69 0.00 0 85.7 79.7 45.8 12.3
10/7/20 88.3 1442 39.3 0713 0.00 0.00 0.11 2.1 15.6 1742 NW | 321 35.8 98 3 0.0 0.0 5.1 5.1 1.5 13.6 13.8 3,378 3,379 2.67 0.00 0 147.2 87.7 38.9 12.3
10/6/20 91.6 1447 41.6 0731 0.00 0.00 0.11 1.6 11.2 1554 SE | 143 40.0 99 8 0.0 0.0 3.8 3.8 1.0 15.0 16.6 3,364 3,366 2.14 0.00 10 167.7 91.1 41.3 12.3
10/5/20 93.0 1609 42.2 0736 0.00 0.00 0.11 1.3 8.6 1328 SSE | 151 40.8 97 7 0.0 0.0 3.0 3.0 1.0 14.5 17.6 3,349 3,349 2.69 0.00 20 160.3 91.5 42.0 12.3
10/4/20 92.8 1543 42.3 0732 0.00 0.00 0.11 2.2 17.6 1847 WNW | 290 36.3 94 6 0.0 0.0 2.1 2.1 1.0 16.9 17.6 3,335 3,332 2.59 0.00 30 199.8 92.6 42.0 12.4
10/3/20 96.3 1526 46.2 0703 0.00 0.00 0.11 4.1 30.4 1611 W | 267 36.9 97 7 0.0 0.0 0.0 0.0 0.0 20.6 21.2 3,318 3,314 2.04 1.50 40 258.5 96.6 45.9 12.3
10/2/20 93.2 1630 50.8 0708 0.00 0.00 0.11 1.7 17.1 1547 NW | 323 48.0 97 12 0.0 0.0 0.0 0.0 0.0 17.0 22.0 3,297 3,293 3.22 0.00 50 160.3 93.5 50.5 12.4
10/1/20 91.5 1552 51.4 0717 0.00 0.00 0.11 0.9 9.1 1546 WNW | 298 51.8 95 15 0.0 0.0 0.0 0.0 0.0 16.9 21.4 3,280 3,271 2.45 0.00 60 149.9 92.4 51.2 12.4
9/30/20 100.3 1507 47.6 0628 0.00 0.00 0.11 2.0 15.6 1852 W | 281 43.5 95 8 0.0 0.0 0.0 0.0 0.0 20.7 24.0 3,263 3,249 2.19 3.36 70 256.6 98.1 47.1 12.3
9/29/20 95.5 1539 47.3 0716 0.00 0.00 0.11 1.2 8.0 1414 S | 190 45.0 94 9 0.0 0.0 0.0 0.0 0.0 16.8 21.4 3,242 3,225 2.37 0.14 80 184.6 94.4 47.1 12.4
9/28/20 96.0 1529 50.6 0730 0.00 0.00 0.11 1.6 9.8 1557 SSE | 150 43.0 85 8 0.0 0.0 0.0 0.0 0.0 18.8 23.3 3,226 3,204 3.16 0.34 90 193.8 93.8 50.4 12.4
9/27/20 95.5 1523 48.0 0711 0.00 0.00 0.11 3.0 17.3 1534 NE | 56 42.3 100 7 0.0 0.0 0.0 0.0 -15.5 22.2 21.8 3,207 3,181 4.58 0.18 100 268.2 95.6 47.8 12.4
9/26/20 82.1 1416 51.1 0701 0.00 0.00 0.11 7.9 26.7 1426 WNW | 292 52.3 100 32 0.0 0.0 0.0 0.0 0.0 17.8 16.6 3,185 3,159 10.42 0.00 100 131.6 82.6 50.8 12.4
9/25/20 82.4 1433 48.2 0535 0.00 0.00 0.11 5.8 25.8 1620 NNW | 330 46.6 100 19 0.0 0.0 0.0 0.0 -14.5 14.9 15.3 3,167 3,142 9.00 0.00 80 112.2 83.1 48.0 12.3
9/24/20 78.0 1514 52.2 0057 0.00 0.00 0.11 5.9 22.5 1800 NW | 305 52.9 100 39 0.0 0.0 0.0 0.0 0.5 14.8 15.1 3,152 3,127 8.17 0.00 60 86.6 78.4 52.1 12.4
Max 100.3 - 52.2 - 0.00 0.00 - 7.9 30.4 - - 55.1 100 67 0.0 0.0 8.0 8.0 3.5 22.2 24.0 - - 10.42 3.36 100 268.2 98.1 52.1 12.4
Avg - - - - - 0.00 - 2.8 - - - 43.7 - - 0.0 0.0 1.7 1.7 -0.3 15.2 16.8 - - 4.22 0.22 - - - - -
Min 68.7 - 36.8 - 0.00 0.00 - 0.9 8.0 - - 35.0 85 3 0.0 0.0 0.0 0.0 -15.5 9.0 7.5 - - 0.00 0.00 0 9.8 69.1 36.4 12.3
Total - - - - - - - - - - - - - - 0.0 0.0 49.6 49.6 -8.5 455.8 503.7 - - 126.74 6.46 - - - - -